createdAt,value
2023-03-01T00:03:17.223Z,9.07
2023-03-01T00:08:18.902Z,9.02
2023-03-01T00:13:20.660Z,10.25
2023-03-01T00:18:23.492Z,9.48
2023-03-01T00:23:25.732Z,9.93
2023-03-01T00:28:27.354Z,10.52
2023-03-01T00:33:28.941Z,11.27
2023-03-01T00:38:30.871Z,10.02
2023-03-01T00:43:37.576Z,11.07
2023-03-01T00:48:39.495Z,10.65
2023-03-01T00:53:42.034Z,9.75
2023-03-01T00:58:44.152Z,11.45
2023-03-01T01:03:58.473Z,10.80
2023-03-01T01:09:00.759Z,10.30
2023-03-01T01:14:02.437Z,10.43
2023-03-01T01:19:04.947Z,10.98
2023-03-01T01:24:06.951Z,11.60
2023-03-01T01:29:08.893Z,11.82
2023-03-01T01:34:16.353Z,11.15
2023-03-01T01:39:18.026Z,11.20
2023-03-01T01:44:19.669Z,11.27
2023-03-01T01:49:38.145Z,11.50
2023-03-01T01:54:51.448Z,11.75
2023-03-01T01:59:58.646Z,11.63
2023-03-01T02:05:11.273Z,11.85
2023-03-01T02:10:12.942Z,12.35
2023-03-01T02:15:14.710Z,12.52
2023-03-01T02:20:34.115Z,12.60
2023-03-01T02:26:03.319Z,13.15
2023-03-01T02:31:26.795Z,12.85
2023-03-01T02:36:37.103Z,13.88
2023-03-01T02:41:41.992Z,14.15
2023-03-01T02:46:50.171Z,14.18
2023-03-01T02:52:13.035Z,13.27
2023-03-01T02:57:15.202Z,14.25
2023-03-01T03:02:37.126Z,13.32
2023-03-01T03:07:44.794Z,13.82
2023-03-01T03:12:55.878Z,14.55
2023-03-01T03:17:59.468Z,13.88
2023-03-01T03:23:01.620Z,15.40
2023-03-01T03:28:10.321Z,14.45
2023-03-01T03:33:13.836Z,13.88
2023-03-01T03:38:18.144Z,14.25
2023-03-01T03:43:22.907Z,13.32
2023-03-01T03:48:25.919Z,15.45
2023-03-01T03:53:29.227Z,14.70
2023-03-01T03:58:30.915Z,15.20
2023-03-01T04:03:33.557Z,15.75
2023-03-01T04:08:35.250Z,15.40
2023-03-01T04:13:37.401Z,15.68
2023-03-01T04:18:39.009Z,16.08
2023-03-01T04:23:41.919Z,15.13
2023-03-01T04:28:47.104Z,14.98
2023-03-01T04:33:54.136Z,14.80
2023-03-01T04:38:57.062Z,15.00
2023-03-01T04:44:01.063Z,16.50
2023-03-01T04:49:03.967Z,16.58
2023-03-01T04:54:09.727Z,16.42
2023-03-01T04:59:13.531Z,16.65
2023-03-01T05:04:15.191Z,17.25
2023-03-01T05:09:16.942Z,17.17
2023-03-01T05:14:18.635Z,18.20
2023-03-01T05:19:23.714Z,16.98
2023-03-01T05:24:25.678Z,18.83
2023-03-01T05:29:28.734Z,19.55
2023-03-01T05:34:36.369Z,17.02
2023-03-01T05:39:38.001Z,16.75
2023-03-01T05:44:39.801Z,15.77
2023-03-01T05:49:41.428Z,17.45
2023-03-01T05:54:43.089Z,19.80
2023-03-01T05:59:44.683Z,19.73
2023-03-01T06:04:46.365Z,19.40
2023-03-01T06:09:48.061Z,17.92
2023-03-01T06:14:49.726Z,19.25
2023-03-01T06:19:51.381Z,18.30
2023-03-01T06:24:53.042Z,18.92
2023-03-01T06:29:54.960Z,18.77
2023-03-01T06:34:56.750Z,18.10
2023-03-01T06:39:58.378Z,19.17
2023-03-01T06:45:00.003Z,18.42
2023-03-01T06:50:02.971Z,19.17
2023-03-01T06:55:05.379Z,20.20
2023-03-01T07:00:08.163Z,18.35
2023-03-01T07:05:09.833Z,19.95
2023-03-01T07:10:12.360Z,20.48
2023-03-01T07:15:15.947Z,20.75
2023-03-01T07:20:18.983Z,19.95
2023-03-01T07:25:21.042Z,20.58
2023-03-01T07:30:23.665Z,21.02
2023-03-01T07:35:28.945Z,23.67
2023-03-01T07:40:30.674Z,23.83
2023-03-01T07:45:32.444Z,24.00
2023-03-01T07:50:34.142Z,25.05
2023-03-01T07:55:35.802Z,20.42
2023-03-01T08:00:37.572Z,19.52
2023-03-01T08:05:39.217Z,17.77
2023-03-01T08:10:40.840Z,19.30
2023-03-01T08:15:42.466Z,19.75
2023-03-01T08:20:44.327Z,20.30
2023-03-01T08:25:46.183Z,20.48
2023-03-01T08:30:47.832Z,19.70
2023-03-01T08:35:49.493Z,20.13
2023-03-01T08:40:51.181Z,21.13
2023-03-01T08:45:52.881Z,19.85
2023-03-01T08:50:54.487Z,20.63
2023-03-01T08:55:56.147Z,21.20
2023-03-01T09:00:57.821Z,20.67
2023-03-01T09:06:03.841Z,22.42
2023-03-01T09:11:08.494Z,21.02
2023-03-01T09:16:12.695Z,21.13
2023-03-01T09:21:16.896Z,22.48
2023-03-01T09:26:23.933Z,22.42
2023-03-01T09:31:25.952Z,22.98
2023-03-01T09:36:27.647Z,24.23
2023-03-01T09:41:47.495Z,24.10
2023-03-01T09:46:49.613Z,24.07
2023-03-01T09:52:10.097Z,24.15
2023-03-01T10:03:00.447Z,22.10
2023-03-01T10:08:20.341Z,22.55
2023-03-01T10:13:53.849Z,24.47
2023-03-01T10:19:03.095Z,26.10
2023-03-01T10:24:17.564Z,25.80
2023-03-01T10:29:25.108Z,26.60
2023-03-01T10:34:33.322Z,27.63
2023-03-01T10:39:35.182Z,22.55
2023-03-01T10:44:40.407Z,23.30
2023-03-01T10:49:56.086Z,19.88
2023-03-01T10:55:03.961Z,18.40
2023-03-01T11:00:26.428Z,18.42
2023-03-01T11:05:35.273Z,16.60
2023-03-01T11:10:37.603Z,14.27
2023-03-01T11:15:39.321Z,12.93
2023-03-01T11:20:41.865Z,13.73
2023-03-01T11:25:50.343Z,11.02
2023-03-01T11:31:08.324Z,8.82
2023-03-01T11:36:16.494Z,10.10
2023-03-01T11:41:22.523Z,10.55
2023-03-01T11:46:33.027Z,11.13
2023-03-01T11:52:03.345Z,10.75
2023-03-01T11:57:43.326Z,11.45
2023-03-01T12:02:59.311Z,10.55
2023-03-01T12:08:09.990Z,9.73
2023-03-01T12:13:38.712Z,10.20
2023-03-01T12:19:13.070Z,9.68
2023-03-01T12:24:39.906Z,10.88
2023-03-01T12:29:52.142Z,10.65
2023-03-01T12:35:13.592Z,10.65
2023-03-01T12:40:50.832Z,11.50
2023-03-01T12:46:10.439Z,11.52
2023-03-01T12:51:16.856Z,11.43
2023-03-01T12:56:23.796Z,10.60
2023-03-01T13:01:34.165Z,12.35
2023-03-01T13:07:05.713Z,11.88
2023-03-01T13:12:45.855Z,11.70
2023-03-01T13:17:47.573Z,11.70
2023-03-01T13:23:02.577Z,11.07
2023-03-01T13:28:29.066Z,11.45
2023-03-01T13:33:31.798Z,11.10
2023-03-01T13:38:47.123Z,10.10
2023-03-01T13:43:49.052Z,9.45
2023-03-01T13:48:57.699Z,10.20
2023-03-01T13:54:00.350Z,10.93
2023-03-01T13:59:15.820Z,11.25
2023-03-01T14:04:32.399Z,11.60
2023-03-01T14:09:34.782Z,12.38
2023-03-01T14:14:45.493Z,10.25
2023-03-01T14:19:48.997Z,10.68
2023-03-01T14:25:00.457Z,9.15
2023-03-01T14:30:11.067Z,11.98
2023-03-01T14:35:32.818Z,11.55
2023-03-01T14:40:37.107Z,12.20
2023-03-01T14:45:38.805Z,12.18
2023-03-01T14:50:45.596Z,12.85
2023-03-01T14:55:51.836Z,11.30
2023-03-01T15:00:57.006Z,11.75
2023-03-01T15:06:01.473Z,11.32
2023-03-01T15:11:19.863Z,3.65
2023-03-01T15:16:27.927Z,10.55
2023-03-01T15:21:33.973Z,9.27
2023-03-01T15:26:42.690Z,2.85
2023-03-01T15:31:44.672Z,8.50
2023-03-01T15:36:50.776Z,8.55
2023-03-01T15:41:52.557Z,9.00
2023-03-01T15:46:54.381Z,9.77
2023-03-01T15:51:56.397Z,8.80
2023-03-01T15:56:58.060Z,8.40
2023-03-01T16:01:59.659Z,7.15
2023-03-01T16:07:02.092Z,8.20
2023-03-01T16:12:03.895Z,8.15
2023-03-01T16:17:06.342Z,8.02
2023-03-01T16:22:10.818Z,8.40
2023-03-01T16:27:12.488Z,8.52
2023-03-01T16:32:14.281Z,8.32
2023-03-01T16:37:17.058Z,8.50
2023-03-01T16:42:18.985Z,8.93
2023-03-01T16:47:20.776Z,8.63
2023-03-01T16:52:23.372Z,9.32
2023-03-01T16:57:25.038Z,10.10
2023-03-01T17:02:27.276Z,9.98
2023-03-01T17:07:29.500Z,13.43
2023-03-01T17:12:31.143Z,13.52
2023-03-01T17:17:33.210Z,13.23
2023-03-01T17:22:35.010Z,16.60
2023-03-01T17:27:40.633Z,15.82
2023-03-01T17:32:42.427Z,14.18
2023-03-01T17:37:46.551Z,15.25
2023-03-01T17:42:48.312Z,15.18
2023-03-01T17:47:50.039Z,15.60
2023-03-01T17:52:51.757Z,15.38
2023-03-01T17:57:53.385Z,21.27
2023-03-01T18:02:55.112Z,19.02
2023-03-01T18:07:56.675Z,14.77
2023-03-01T18:12:58.309Z,16.05
2023-03-01T18:18:00.067Z,17.63
2023-03-01T18:23:01.759Z,14.77
2023-03-01T18:28:03.526Z,12.57
2023-03-01T18:33:05.381Z,14.15
2023-03-01T18:38:07.125Z,14.88
2023-03-01T18:43:08.899Z,11.45
2023-03-01T18:48:14.369Z,16.73
2023-03-01T18:53:16.029Z,11.48
2023-03-01T18:58:17.596Z,13.35
2023-03-01T19:03:19.178Z,14.38
2023-03-01T19:08:20.989Z,14.27
2023-03-01T19:13:22.754Z,14.32
2023-03-01T19:18:24.324Z,14.70
2023-03-01T19:23:25.930Z,14.05
2023-03-01T19:28:27.991Z,13.45
2023-03-01T19:33:31.224Z,14.18
2023-03-01T19:38:32.910Z,13.52
2023-03-01T19:43:35.447Z,14.13
2023-03-01T19:48:37.438Z,14.35
2023-03-01T19:53:40.544Z,14.38
2023-03-01T19:58:43.319Z,15.55
2023-03-01T20:03:45.917Z,14.07
2023-03-01T20:08:50.561Z,14.75
2023-03-01T20:13:52.363Z,13.50
2023-03-01T20:18:54.461Z,14.27
2023-03-01T20:23:56.123Z,14.68
2023-03-01T20:28:57.800Z,13.52
2023-03-01T20:34:00.046Z,14.15
2023-03-01T20:39:01.715Z,14.25
2023-03-01T20:44:06.504Z,13.52
2023-03-01T20:49:08.183Z,13.80
2023-03-01T20:54:10.636Z,15.90
2023-03-01T20:59:12.916Z,14.93
2023-03-01T21:04:14.583Z,15.90
2023-03-01T21:09:16.408Z,15.23
2023-03-01T21:14:18.183Z,15.30
2023-03-01T21:19:22.807Z,16.30
2023-03-01T21:24:25.171Z,16.15
2023-03-01T21:29:26.798Z,16.75
2023-03-01T21:34:28.363Z,16.38
2023-03-01T21:39:30.578Z,17.55
2023-03-01T21:44:33.034Z,18.48
2023-03-01T21:49:37.280Z,18.48
2023-03-01T21:54:38.904Z,20.83
2023-03-01T21:59:41.173Z,21.33
2023-03-01T22:04:42.988Z,20.65
2023-03-01T22:09:44.780Z,21.35
2023-03-01T22:14:46.574Z,19.42
2023-03-01T22:19:48.316Z,19.83
2023-03-01T22:24:50.073Z,20.05
2023-03-01T22:29:51.912Z,19.70
2023-03-01T22:34:53.745Z,19.50
2023-03-01T22:39:57.334Z,20.33
2023-03-01T22:44:59.551Z,19.52
2023-03-01T22:50:01.423Z,19.63
2023-03-01T22:55:03.271Z,21.20
2023-03-01T23:00:07.799Z,21.17
2023-03-01T23:05:10.596Z,21.25
2023-03-01T23:10:13.639Z,23.02
2023-03-01T23:15:15.467Z,22.02
2023-03-01T23:20:17.740Z,22.73
2023-03-01T23:25:19.535Z,22.15
2023-03-01T23:30:21.467Z,22.20
2023-03-01T23:35:23.228Z,22.83
2023-03-01T23:40:25.027Z,22.10
2023-03-01T23:45:26.810Z,19.33
2023-03-01T23:50:28.690Z,20.27
2023-03-01T23:55:30.751Z,21.05
